Time;durP1;ratioP1;P1;durP2;ratioP2;P2;SDS_P1;SDS_P2;PMS_P1;PMS_P2;Temp;Humidity;BMP_temperature;BMP_pressure;BME280_temperature;BME280_humidity;BME280_pressure;Samples;Min_cycle;Max_cycle;Signal;HPM_P1;HPM_P2
2023/09/03 00:01:40;;;;;;;13.80;12.13;;;14.20;99.90;;;;;;5031619;28;20047;-56
2023/09/03 00:04:06;;;;;;;14.00;12.38;;;14.20;99.90;;;;;;5041262;28;20033;-54
2023/09/03 00:06:32;;;;;;;14.13;12.43;;;14.20;99.90;;;;;;5043543;28;20484;-54
2023/09/03 00:08:58;;;;;;;13.27;10.25;;;14.10;99.90;;;;;;5044667;28;20279;-55
2023/09/03 00:11:23;;;;;;;13.65;12.10;;;14.10;99.90;;;;;;5046879;28;20043;-56
2023/09/03 00:13:49;;;;;;;11.48;10.27;;;14.10;99.90;;;;;;5044481;28;20072;-57
2023/09/03 00:16:15;;;;;;;10.13;9.05;;;14.10;99.90;;;;;;5043375;28;20496;-56
2023/09/03 00:18:40;;;;;;;12.50;11.20;;;14.10;99.90;;;;;;5038817;28;20040;-56
2023/09/03 00:21:06;;;;;;;12.32;11.07;;;14.10;99.90;;;;;;5046655;28;20463;-56
2023/09/03 00:23:32;;;;;;;11.88;10.38;;;14.00;99.90;;;;;;5037391;28;20127;-57
2023/09/03 00:26:02;;;;;;;11.80;9.85;;;14.00;99.90;;;;;;5043987;28;20088;-56
2023/09/03 00:28:28;;;;;;;11.35;10.05;;;14.00;99.90;;;;;;5039160;28;20092;-57
2023/09/03 00:31:01;;;;;;;12.43;11.07;;;14.00;99.90;;;;;;5044355;28;20052;-55
2023/09/03 00:33:28;;;;;;;9.60;8.30;;;14.00;99.90;;;;;;5038883;28;20078;-55
2023/09/03 00:35:53;;;;;;;11.15;9.95;;;14.00;99.90;;;;;;5044439;28;20075;-53
2023/09/03 00:38:19;;;;;;;10.50;9.05;;;14.00;99.90;;;;;;5041681;28;20036;-56
2023/09/03 00:40:45;;;;;;;9.45;8.45;;;13.90;99.90;;;;;;5040315;28;20037;-56
2023/09/03 00:43:11;;;;;;;8.23;7.38;;;13.90;99.90;;;;;;5042484;28;20040;-57
2023/09/03 00:45:36;;;;;;;9.10;8.07;;;13.90;99.90;;;;;;5014648;28;20092;-55
2023/09/03 00:48:02;;;;;;;9.38;8.10;;;13.80;99.90;;;;;;5038127;28;20044;-54
2023/09/03 00:50:29;;;;;;;11.27;9.38;;;13.80;99.90;;;;;;5040651;28;20094;-54
2023/09/03 00:52:55;;;;;;;11.10;10.05;;;13.80;99.90;;;;;;5040908;28;20052;-55
2023/09/03 00:55:22;;;;;;;8.63;7.20;;;13.80;99.90;;;;;;5040687;28;20041;-56
2023/09/03 00:57:48;;;;;;;10.75;9.75;;;13.90;99.90;;;;;;5041431;28;20052;-56
2023/09/03 01:00:16;;;;;;;10.25;9.20;;;14.00;99.90;;;;;;5022865;28;20048;-54
2023/09/03 01:02:45;;;;;;;8.52;7.72;;;13.90;99.90;;;;;;5040408;28;20087;-55
2023/09/03 01:05:13;;;;;;;10.80;9.65;;;13.90;99.90;;;;;;5024587;28;20104;-55
2023/09/03 01:07:38;;;;;;;14.93;12.43;;;14.00;99.90;;;;;;5037544;28;20083;-57
2023/09/03 01:10:05;;;;;;;13.00;11.55;;;14.00;99.90;;;;;;5014856;28;20064;-55
2023/09/03 01:12:42;;;;;;;15.25;13.65;;;14.00;99.90;;;;;;5045398;28;20055;-55
2023/09/03 01:15:14;;;;;;;14.18;12.77;;;14.00;99.90;;;;;;5034636;28;20045;-56
2023/09/03 01:17:52;;;;;;;12.15;10.93;;;14.00;99.90;;;;;;5067790;22;20052;-57
2023/09/03 01:20:25;;;;;;;11.02;9.93;;;14.00;99.90;;;;;;5049262;28;20048;-56
2023/09/03 01:23:00;;;;;;;11.10;10.00;;;14.00;99.90;;;;;;5072065;28;20080;-56
2023/09/03 01:25:53;;;;;;;12.55;11.25;;;14.00;99.90;;;;;;5065979;28;20380;-54
2023/09/03 01:28:26;;;;;;;11.00;9.90;;;13.90;99.90;;;;;;5058145;28;20045;-57
2023/09/03 01:31:02;;;;;;;12.80;10.97;;;13.80;99.90;;;;;;5029814;28;20036;-57
2023/09/03 01:33:30;;;;;;;12.93;10.07;;;13.80;99.90;;;;;;5058284;28;20044;-58
2023/09/03 01:35:59;;;;;;;13.60;11.95;;;13.70;99.90;;;;;;5048415;28;20464;-57
2023/09/03 01:38:26;;;;;;;14.88;13.27;;;13.80;99.90;;;;;;5043355;28;20036;-56
2023/09/03 01:40:55;;;;;;;11.45;10.10;;;13.80;99.90;;;;;;5032240;28;20049;-57
2023/09/03 01:43:22;;;;;;;12.60;11.30;;;13.80;99.90;;;;;;5039158;28;20083;-57
2023/09/03 01:45:53;;;;;;;16.52;14.35;;;13.70;99.90;;;;;;5042348;28;20037;-58
2023/09/03 01:48:56;;;;;;;13.80;11.50;;;13.80;99.90;;;;;;5046192;28;20037;-57
2023/09/03 01:51:43;;;;;;;11.82;10.32;;;13.80;99.90;;;;;;5045963;28;20036;-58
2023/09/03 01:54:13;;;;;;;12.50;10.20;;;13.80;99.90;;;;;;5045930;28;20127;-56
2023/09/03 01:56:50;;;;;;;15.38;12.57;;;13.80;99.90;;;;;;5049508;28;20517;-56
2023/09/03 01:59:20;;;;;;;14.30;12.82;;;13.70;99.90;;;;;;5049972;28;20605;-56
2023/09/03 02:01:49;;;;;;;13.50;12.10;;;13.70;99.90;;;;;;5046899;28;20041;-56
2023/09/03 02:04:15;;;;;;;12.98;11.68;;;13.70;99.90;;;;;;5048507;28;20037;-55
2023/09/03 02:06:46;;;;;;;14.38;12.60;;;13.70;99.90;;;;;;5047825;28;20052;-56
2023/09/03 02:09:12;;;;;;;12.93;11.63;;;13.60;99.90;;;;;;5031308;28;20098;-57
2023/09/03 02:11:37;;;;;;;10.35;8.85;;;13.60;99.90;;;;;;5048703;28;20044;-57
2023/09/03 02:14:03;;;;;;;13.60;12.27;;;13.60;99.90;;;;;;5046641;28;20377;-57
2023/09/03 02:16:29;;;;;;;14.48;12.27;;;13.60;99.90;;;;;;5044769;28;20052;-57
2023/09/03 02:18:54;;;;;;;11.90;10.70;;;13.60;99.90;;;;;;5013536;28;20041;-58
2023/09/03 02:21:20;;;;;;;13.32;11.00;;;13.60;99.90;;;;;;5030917;28;20091;-57
2023/09/03 02:23:45;;;;;;;10.90;9.50;;;13.50;99.90;;;;;;5046444;28;20488;-56
2023/09/03 02:26:12;;;;;;;12.10;10.25;;;13.50;99.90;;;;;;5046968;28;20041;-58
2023/09/03 02:28:37;;;;;;;12.18;10.88;;;13.50;99.90;;;;;;5029631;28;20033;-57
2023/09/03 02:31:03;;;;;;;13.13;11.13;;;13.50;99.90;;;;;;5047864;28;20329;-58
2023/09/03 02:33:29;;;;;;;10.85;9.65;;;13.40;99.90;;;;;;5045563;28;20052;-58
2023/09/03 02:35:55;;;;;;;9.40;8.38;;;13.30;99.90;;;;;;5047561;28;20044;-57
2023/09/03 02:38:20;;;;;;;12.77;11.15;;;13.30;99.90;;;;;;5041514;28;20090;-56
2023/09/03 02:40:46;;;;;;;12.55;10.70;;;13.30;99.90;;;;;;5046122;28;20120;-57
2023/09/03 02:43:13;;;;;;;12.18;10.57;;;13.30;99.90;;;;;;5044836;28;20403;-56
2023/09/03 02:45:39;;;;;;;11.23;9.32;;;13.30;99.90;;;;;;5048537;28;20259;-58
2023/09/03 02:48:05;;;;;;;10.43;9.05;;;13.30;99.90;;;;;;5046627;28;20428;-58
2023/09/03 02:50:34;;;;;;;10.27;8.35;;;13.30;99.90;;;;;;5023795;28;20033;-58
2023/09/03 02:52:59;;;;;;;10.48;9.35;;;13.20;99.90;;;;;;5046963;28;20072;-54
2023/09/03 02:55:25;;;;;;;9.43;8.15;;;13.30;99.90;;;;;;5042104;28;20127;-56
2023/09/03 02:57:50;;;;;;;10.20;9.15;;;13.30;99.90;;;;;;5039467;28;20056;-58
2023/09/03 03:00:18;;;;;;;10.30;9.27;;;13.30;99.90;;;;;;5046324;28;20546;-55
2023/09/03 03:02:44;;;;;;;10.75;8.98;;;13.20;99.90;;;;;;5044425;28;20037;-57
2023/09/03 03:05:10;;;;;;;12.05;10.10;;;13.20;99.90;;;;;;5031455;28;20467;-57
2023/09/03 03:07:38;;;;;;;11.88;9.82;;;13.10;99.90;;;;;;5030879;28;20033;-58
2023/09/03 03:10:04;;;;;;;14.40;11.30;;;13.10;99.90;;;;;;5044414;28;20131;-58
2023/09/03 03:12:29;;;;;;;13.15;10.80;;;13.10;99.90;;;;;;5024258;28;20053;-56
2023/09/03 03:14:55;;;;;;;14.05;12.18;;;13.10;99.90;;;;;;5021649;28;20041;-57
2023/09/03 03:17:21;;;;;;;11.05;9.82;;;13.00;99.90;;;;;;5026060;28;20050;-57
2023/09/03 03:19:50;;;;;;;10.35;9.02;;;13.00;99.90;;;;;;5048743;28;20045;-57
2023/09/03 03:22:16;;;;;;;11.45;10.25;;;13.00;99.90;;;;;;5046179;28;20048;-57
2023/09/03 03:24:41;;;;;;;21.10;14.48;;;13.00;99.90;;;;;;5044834;28;20029;-56
2023/09/03 03:27:08;;;;;;;16.75;14.57;;;13.00;99.90;;;;;;5046088;28;20029;-58
2023/09/03 03:29:33;;;;;;;15.23;11.63;;;13.00;99.90;;;;;;5043374;28;20122;-58
2023/09/03 03:31:59;;;;;;;15.27;13.32;;;13.00;99.90;;;;;;5039549;28;20519;-57
2023/09/03 03:34:25;;;;;;;17.38;11.63;;;13.10;99.90;;;;;;5040241;28;20037;-57
2023/09/03 03:36:51;;;;;;;14.18;11.82;;;13.10;99.90;;;;;;5037412;28;20388;-57
2023/09/03 03:39:17;;;;;;;17.00;13.20;;;13.10;99.90;;;;;;5039395;28;20403;-57
2023/09/03 03:41:43;;;;;;;11.30;10.20;;;13.00;99.90;;;;;;5039029;28;20049;-56
2023/09/03 03:44:08;;;;;;;11.73;10.52;;;12.90;99.90;;;;;;5042347;28;20278;-56
2023/09/03 03:46:34;;;;;;;13.90;11.35;;;12.90;99.90;;;;;;5041877;28;20036;-57
2023/09/03 03:49:00;;;;;;;12.82;10.27;;;12.80;99.90;;;;;;5048883;28;20063;-55
2023/09/03 03:51:26;;;;;;;10.70;9.70;;;12.80;99.90;;;;;;5046028;28;20079;-56
2023/09/03 03:53:51;;;;;;;8.32;7.47;;;12.80;99.90;;;;;;5042225;28;20037;-61
2023/09/03 03:56:17;;;;;;;9.05;8.15;;;12.80;99.90;;;;;;5045002;28;20045;-54
2023/09/03 03:58:44;;;;;;;11.50;10.07;;;12.80;99.90;;;;;;5045317;28;20128;-56
2023/09/03 04:01:15;;;;;;;12.38;11.07;;;12.80;99.90;;;;;;5042329;28;20504;-56
2023/09/03 04:03:41;;;;;;;10.43;9.05;;;12.80;99.90;;;;;;5026177;28;20526;-56
2023/09/03 04:06:07;;;;;;;13.13;10.07;;;12.80;99.90;;;;;;5043267;28;20045;-57
2023/09/03 04:08:35;;;;;;;9.95;8.95;;;12.90;99.90;;;;;;5043172;28;20036;-56
2023/09/03 04:11:03;;;;;;;9.52;8.27;;;13.00;99.90;;;;;;5020894;28;20559;-57
2023/09/03 04:13:29;;;;;;;8.93;7.88;;;13.00;99.90;;;;;;5039412;28;20037;-56
2023/09/03 04:15:56;;;;;;;10.00;8.68;;;13.00;99.90;;;;;;5043005;28;20063;-55
2023/09/03 04:18:23;;;;;;;8.82;8.02;;;12.90;99.90;;;;;;5039150;28;20029;-56
2023/09/03 04:20:57;;;;;;;11.20;9.38;;;12.90;99.90;;;;;;5027263;28;20048;-55
2023/09/03 04:23:23;;;;;;;11.07;9.25;;;12.80;99.90;;;;;;5041485;28;20048;-58
2023/09/03 04:25:50;;;;;;;9.40;7.55;;;12.90;99.90;;;;;;5038334;28;20407;-55
2023/09/03 04:28:16;;;;;;;11.07;9.15;;;12.80;99.90;;;;;;5045349;28;20041;-57
2023/09/03 04:30:42;;;;;;;8.95;8.05;;;12.80;99.90;;;;;;5040021;28;20033;-56
2023/09/03 04:33:08;;;;;;;7.95;7.15;;;12.80;99.90;;;;;;5045364;28;20606;-57
2023/09/03 04:35:35;;;;;;;10.13;9.10;;;12.90;99.90;;;;;;5043821;28;20395;-55
2023/09/03 04:38:00;;;;;;;9.52;8.23;;;13.00;99.90;;;;;;5048083;28;20120;-58
2023/09/03 04:40:26;;;;;;;10.85;8.95;;;13.00;99.90;;;;;;5044056;28;20052;-57
2023/09/03 04:42:52;;;;;;;10.55;8.48;;;13.00;99.90;;;;;;5026406;28;20052;-56
2023/09/03 04:45:18;;;;;;;9.80;8.00;;;13.00;99.90;;;;;;5043044;28;20044;-56
2023/09/03 04:47:44;;;;;;;11.73;9.32;;;13.00;99.90;;;;;;5019344;28;20087;-56
2023/09/03 04:50:10;;;;;;;9.13;7.82;;;13.00;99.90;;;;;;5044996;28;20317;-56
2023/09/03 04:52:37;;;;;;;10.65;9.55;;;12.90;99.90;;;;;;5059010;28;20056;-54
2023/09/03 04:55:03;;;;;;;12.45;9.85;;;12.90;99.90;;;;;;5024324;28;20304;-55
2023/09/03 04:57:29;;;;;;;9.93;8.93;;;12.90;99.90;;;;;;5044404;28;20037;-54
2023/09/03 04:59:54;;;;;;;9.68;7.45;;;13.00;99.90;;;;;;5043131;28;20059;-56
2023/09/03 05:02:21;;;;;;;10.20;8.40;;;13.00;99.90;;;;;;5058084;28;20041;-55
2023/09/03 05:04:46;;;;;;;9.20;7.45;;;13.00;99.90;;;;;;5043870;28;20043;-56
2023/09/03 05:07:12;;;;;;;8.57;7.72;;;13.00;99.90;;;;;;5045505;28;20067;-56
2023/09/03 05:09:38;;;;;;;9.70;8.70;;;13.00;99.90;;;;;;5056012;28;20028;-56
2023/09/03 05:12:03;;;;;;;8.90;8.00;;;13.00;99.90;;;;;;5052849;28;20491;-58
2023/09/03 05:14:29;;;;;;;8.50;7.47;;;13.00;99.90;;;;;;5047672;28;20044;-56
2023/09/03 05:16:55;;;;;;;7.53;6.75;;;13.00;99.90;;;;;;5024221;28;20029;-56
2023/09/03 05:19:21;;;;;;;8.93;7.70;;;13.00;99.90;;;;;;5046302;28;20068;-57
2023/09/03 05:21:46;;;;;;;6.80;6.15;;;13.00;99.90;;;;;;5004473;28;20045;-56
2023/09/03 05:24:12;;;;;;;8.68;7.88;;;13.00;99.90;;;;;;5041220;28;20712;-57
2023/09/03 05:26:38;;;;;;;7.85;7.05;;;13.10;99.90;;;;;;5020512;28;20076;-57
2023/09/03 05:29:04;;;;;;;7.55;6.85;;;13.10;99.90;;;;;;5039505;28;20045;-56
2023/09/03 05:31:30;;;;;;;9.50;7.95;;;13.10;99.90;;;;;;5037659;28;20049;-57
2023/09/03 05:33:57;;;;;;;6.68;6.07;;;13.10;99.90;;;;;;5045304;28;20080;-57
2023/09/03 05:36:22;;;;;;;6.90;6.20;;;13.20;99.90;;;;;;5038277;28;20036;-56
2023/09/03 05:38:48;;;;;;;7.60;6.90;;;13.20;99.90;;;;;;5022795;28;20112;-55
2023/09/03 05:41:15;;;;;;;6.85;6.25;;;13.30;99.90;;;;;;5043318;28;20036;-56
2023/09/03 05:43:40;;;;;;;8.15;7.10;;;13.30;99.90;;;;;;5046345;28;20067;-54
2023/09/03 05:46:06;;;;;;;5.80;5.30;;;13.30;99.90;;;;;;5027864;28;20705;-56
2023/09/03 05:48:32;;;;;;;6.85;6.20;;;13.40;99.90;;;;;;5043205;28;20047;-56
2023/09/03 05:51:05;;;;;;;6.35;5.75;;;13.40;99.90;;;;;;5043321;28;20084;-55
2023/09/03 05:53:35;;;;;;;5.60;5.10;;;13.50;99.90;;;;;;5044303;28;20043;-57
2023/09/03 05:56:05;;;;;;;6.45;5.85;;;13.50;99.90;;;;;;5045276;28;20045;-57
2023/09/03 05:58:32;;;;;;;7.03;6.15;;;13.60;99.90;;;;;;5047154;28;20075;-56
2023/09/03 06:00:58;;;;;;;6.35;5.75;;;13.60;99.90;;;;;;5045332;28;20044;-56
2023/09/03 06:03:24;;;;;;;6.22;5.63;;;13.70;99.90;;;;;;5025051;28;20049;-57
2023/09/03 06:05:50;;;;;;;6.35;5.75;;;13.70;99.90;;;;;;5049276;28;20044;-56
2023/09/03 06:08:15;;;;;;;6.25;5.45;;;13.80;99.90;;;;;;5045015;28;20029;-54
2023/09/03 06:10:41;;;;;;;7.22;6.53;;;13.80;99.90;;;;;;5054363;28;20049;-57
2023/09/03 06:13:07;;;;;;;5.43;4.93;;;13.90;99.90;;;;;;5048011;28;20048;-55
2023/09/03 06:15:33;;;;;;;6.55;5.95;;;13.90;99.90;;;;;;5046365;28;20040;-57
2023/09/03 06:17:59;;;;;;;5.72;5.13;;;14.00;99.90;;;;;;5059546;28;20119;-56
2023/09/03 06:20:25;;;;;;;8.07;7.28;;;14.10;99.90;;;;;;5050139;28;20041;-56
2023/09/03 06:22:51;;;;;;;6.60;6.00;;;14.10;99.90;;;;;;5024602;28;20037;-58
2023/09/03 06:25:18;;;;;;;5.93;5.18;;;14.20;99.90;;;;;;5046162;28;20101;-55
2023/09/03 06:27:44;;;;;;;4.93;4.43;;;14.30;99.90;;;;;;5042568;28;20045;-56
2023/09/03 06:30:10;;;;;;;9.00;6.10;;;14.40;99.90;;;;;;5044461;28;20507;-58
2023/09/03 06:32:37;;;;;;;8.85;7.88;;;14.50;99.90;;;;;;5049053;28;20515;-57
2023/09/03 06:35:04;;;;;;;9.63;7.45;;;14.60;99.90;;;;;;5062108;28;20041;-57
2023/09/03 06:37:29;;;;;;;7.80;7.00;;;14.70;99.90;;;;;;5046195;28;20395;-57
2023/09/03 06:39:55;;;;;;;8.07;6.13;;;14.70;99.90;;;;;;5046177;28;20424;-56
2023/09/03 06:42:22;;;;;;;7.22;6.13;;;14.80;99.90;;;;;;5046867;28;20052;-57
2023/09/03 06:44:47;;;;;;;8.27;6.72;;;14.90;99.90;;;;;;5030507;28;20392;-56
2023/09/03 06:47:13;;;;;;;9.43;7.88;;;15.00;99.90;;;;;;5050856;28;20053;-56
2023/09/03 06:49:39;;;;;;;7.90;6.53;;;15.10;99.90;;;;;;5050286;28;20599;-57
2023/09/03 06:52:05;;;;;;;9.18;8.27;;;15.20;99.90;;;;;;5056386;28;20041;-58
2023/09/03 06:54:30;;;;;;;11.25;8.45;;;15.30;99.90;;;;;;5045897;28;20036;-58
2023/09/03 06:56:56;;;;;;;9.65;8.38;;;15.40;99.90;;;;;;5039226;28;20046;-57
2023/09/03 06:59:23;;;;;;;10.52;7.63;;;15.50;99.90;;;;;;5042828;28;20430;-57
2023/09/03 07:01:52;;;;;;;9.50;7.90;;;15.70;99.90;;;;;;5042384;28;20095;-57
2023/09/03 07:04:18;;;;;;;12.70;9.25;;;15.80;99.90;;;;;;5055974;28;20442;-58
2023/09/03 07:06:44;;;;;;;10.43;8.75;;;16.00;99.90;;;;;;5043310;28;20040;-57
2023/09/03 07:09:12;;;;;;;9.68;8.05;;;16.20;99.90;;;;;;5057660;28;20503;-58
2023/09/03 07:11:38;;;;;;;7.90;7.05;;;16.40;99.90;;;;;;5048211;28;20033;-57
2023/09/03 07:14:03;;;;;;;8.35;7.13;;;16.50;99.90;;;;;;5028117;28;20093;-57
2023/09/03 07:16:30;;;;;;;11.00;6.53;;;16.60;99.90;;;;;;5071195;22;20072;-54
2023/09/03 07:18:56;;;;;;;7.20;6.15;;;16.70;99.90;;;;;;5024511;28;20052;-56
2023/09/03 07:21:21;;;;;;;7.25;6.55;;;16.80;99.90;;;;;;5042384;28;20033;-54
2023/09/03 07:23:47;;;;;;;7.65;6.57;;;17.00;99.90;;;;;;5009683;28;20037;-56
2023/09/03 07:26:13;;;;;;;9.88;6.85;;;17.10;99.90;;;;;;5037872;28;20264;-53
2023/09/03 07:28:39;;;;;;;12.85;7.03;;;17.20;99.90;;;;;;5045007;28;20040;-56
2023/09/03 07:31:05;;;;;;;9.27;7.28;;;17.30;99.90;;;;;;5048436;28;20119;-54
2023/09/03 07:33:32;;;;;;;7.13;6.43;;;17.40;99.90;;;;;;5045580;28;20181;-54
2023/09/03 07:35:58;;;;;;;7.75;6.88;;;17.40;99.90;;;;;;5047600;28;20105;-53
2023/09/03 07:38:25;;;;;;;8.95;7.35;;;17.50;99.90;;;;;;5029318;28;20036;-54
2023/09/03 07:40:51;;;;;;;7.70;6.90;;;17.50;99.90;;;;;;5046623;28;20048;-55
2023/09/03 07:43:17;;;;;;;9.48;6.97;;;17.60;99.90;;;;;;5027101;28;20126;-55
2023/09/03 07:45:43;;;;;;;8.55;6.55;;;17.70;99.90;;;;;;5047859;28;20056;-55
2023/09/03 07:48:09;;;;;;;10.95;6.47;;;17.80;99.90;;;;;;5012951;28;20039;-53
2023/09/03 07:50:38;;;;;;;6.85;5.93;;;17.90;99.90;;;;;;5047726;28;20479;-55
2023/09/03 07:53:03;;;;;;;7.65;5.80;;;18.10;99.90;;;;;;5061640;28;20040;-55
2023/09/03 07:55:30;;;;;;;8.93;6.18;;;18.20;99.90;;;;;;5038470;28;20423;-55
2023/09/03 07:57:56;;;;;;;8.88;5.35;;;18.20;99.90;;;;;;5005078;28;20037;-55
2023/09/03 08:00:23;;;;;;;6.57;4.97;;;18.20;99.90;;;;;;5046575;28;20072;-54
2023/09/03 08:02:49;;;;;;;9.00;5.57;;;18.30;99.90;;;;;;5049100;28;20041;-57
2023/09/03 08:05:16;;;;;;;7.40;4.75;;;18.40;99.90;;;;;;5024998;28;20052;-55
2023/09/03 08:07:45;;;;;;;9.15;5.13;;;18.40;99.90;;;;;;5044967;28;20045;-53
2023/09/03 08:10:11;;;;;;;10.05;5.45;;;18.50;99.90;;;;;;5025711;28;20048;-56
2023/09/03 08:12:37;;;;;;;7.20;5.50;;;18.50;99.90;;;;;;5066565;28;20379;-56
2023/09/03 08:15:03;;;;;;;7.78;5.78;;;18.60;99.90;;;;;;5048611;28;20040;-57
2023/09/03 08:17:31;;;;;;;6.55;5.32;;;18.70;99.90;;;;;;5043326;28;20538;-56
2023/09/03 08:19:57;;;;;;;6.35;5.22;;;18.80;99.90;;;;;;5040344;28;20495;-57
2023/09/03 08:22:22;;;;;;;7.40;4.50;;;18.90;99.90;;;;;;5041375;28;20123;-56
2023/09/03 08:24:48;;;;;;;5.70;4.93;;;18.90;99.90;;;;;;5042564;28;20557;-55
2023/09/03 08:27:14;;;;;;;6.47;4.80;;;19.00;99.90;;;;;;5042832;28;20454;-56
2023/09/03 08:29:40;;;;;;;7.20;4.53;;;19.10;99.90;;;;;;5041546;28;20044;-57
2023/09/03 08:32:06;;;;;;;8.32;4.93;;;19.10;99.90;;;;;;5042056;28;20047;-56
2023/09/03 08:34:31;;;;;;;7.15;5.32;;;19.10;99.90;;;;;;5062093;28;20033;-56
2023/09/03 08:36:57;;;;;;;8.40;4.75;;;19.20;99.90;;;;;;5056937;28;20036;-56
2023/09/03 08:39:23;;;;;;;8.77;5.45;;;19.30;99.90;;;;;;5026974;28;20216;-56
2023/09/03 08:41:50;;;;;;;7.43;5.47;;;19.40;99.90;;;;;;5055723;28;20054;-56
2023/09/03 08:44:31;;;;;;;6.72;5.15;;;19.60;99.90;;;;;;5056510;28;20066;-56
2023/09/03 08:46:59;;;;;;;6.47;4.50;;;19.60;99.90;;;;;;5064841;28;20066;-56
2023/09/03 08:49:29;;;;;;;6.22;4.00;;;19.60;99.90;;;;;;5044147;28;20041;-53
2023/09/03 08:51:59;;;;;;;7.40;5.15;;;19.70;99.90;;;;;;5059066;28;20105;-54
2023/09/03 08:54:26;;;;;;;8.90;4.72;;;19.80;99.90;;;;;;5044294;28;20102;-54
2023/09/03 08:56:52;;;;;;;6.85;4.00;;;19.90;99.90;;;;;;5047357;28;20131;-55
2023/09/03 08:59:18;;;;;;;5.63;4.30;;;20.10;99.90;;;;;;5044001;28;20308;-52
2023/09/03 09:01:53;;;;;;;5.88;4.00;;;20.00;99.90;;;;;;5040750;28;20499;-54
2023/09/03 09:04:19;;;;;;;7.18;3.50;;;19.90;99.90;;;;;;5044144;28;20095;-54
2023/09/03 09:06:46;;;;;;;7.22;3.58;;;20.00;99.90;;;;;;5043400;28;20521;-55
2023/09/03 09:09:14;;;;;;;6.95;4.00;;;20.10;99.90;;;;;;5037690;28;20101;-55
2023/09/03 09:11:45;;;;;;;6.68;2.83;;;20.10;99.90;;;;;;5047336;28;20036;-55
2023/09/03 09:17:43;;;;;;;5.75;3.88;;;20.20;99.90;;;;;;5040923;28;20055;-54
2023/09/03 09:20:12;;;;;;;5.97;3.60;;;20.20;99.90;;;;;;5028630;28;20055;-55
2023/09/03 09:22:45;;;;;;;6.22;4.18;;;19.90;99.90;;;;;;5041409;28;20048;-55
2023/09/03 09:25:25;;;;;;;7.82;4.60;;;19.90;99.90;;;;;;5041478;28;20052;-52
2023/09/03 09:28:11;;;;;;;5.78;3.38;;;19.80;99.90;;;;;;5064580;28;20036;-55
2023/09/03 09:30:50;;;;;;;5.05;3.53;;;19.70;99.90;;;;;;5045197;28;20086;-54
2023/09/03 09:33:16;;;;;;;6.28;3.70;;;19.60;99.90;;;;;;5050370;28;20043;-55
2023/09/03 09:35:42;;;;;;;5.50;3.50;;;19.70;99.90;;;;;;5047970;28;20049;-55
2023/09/03 09:38:09;;;;;;;6.68;3.60;;;20.00;99.90;;;;;;5029264;28;20098;-55
2023/09/03 09:40:36;;;;;;;6.90;3.70;;;20.30;99.90;;;;;;5047446;28;20054;-54
2023/09/03 09:43:04;;;;;;;4.63;3.47;;;20.50;99.90;;;;;;5025903;28;20036;-53
2023/09/03 09:45:31;;;;;;;4.53;3.03;;;20.60;99.90;;;;;;5045889;28;20109;-57
2023/09/03 09:48:04;;;;;;;6.30;3.72;;;20.40;99.90;;;;;;5047669;28;20036;-54
2023/09/03 09:50:38;;;;;;;4.55;3.30;;;20.40;99.90;;;;;;5047756;28;20543;-55
2023/09/03 09:53:05;;;;;;;5.15;3.33;;;20.50;99.90;;;;;;5044836;28;20048;-54
2023/09/03 09:55:32;;;;;;;5.22;3.15;;;20.50;99.90;;;;;;5028146;28;20051;-52
2023/09/03 09:58:01;;;;;;;5.22;3.30;;;20.70;99.90;;;;;;5066074;28;20395;-54
2023/09/03 10:00:35;;;;;;;5.45;3.15;;;21.00;99.90;;;;;;5047976;28;20151;-53
2023/09/03 10:03:02;;;;;;;6.00;3.30;;;21.10;99.90;;;;;;5046660;28;20048;-54
2023/09/03 10:05:28;;;;;;;5.65;4.00;;;21.30;99.90;;;;;;5063368;28;20110;-52
2023/09/03 10:07:54;;;;;;;4.45;3.85;;;21.10;99.90;;;;;;5048528;28;20036;-55
2023/09/03 10:10:20;;;;;;;7.22;3.33;;;21.20;99.90;;;;;;5042948;28;20560;-54
2023/09/03 10:12:46;;;;;;;4.80;3.20;;;21.40;99.90;;;;;;5041088;28;20515;-54
2023/09/03 10:15:15;;;;;;;4.47;2.90;;;21.60;99.90;;;;;;5044311;28;20048;-52
2023/09/03 10:17:44;;;;;;;6.03;2.72;;;21.40;99.90;;;;;;5028406;28;20048;-54
2023/09/03 10:20:15;;;;;;;5.15;3.30;;;21.20;99.90;;;;;;5044131;28;20558;-51
2023/09/03 10:22:42;;;;;;;5.47;3.05;;;21.00;99.90;;;;;;5067551;28;20040;-53
2023/09/03 10:25:12;;;;;;;4.03;2.85;;;20.90;99.90;;;;;;5053496;28;20045;-53
2023/09/03 10:27:43;;;;;;;3.78;1.95;;;20.80;99.90;;;;;;5049594;28;20410;-54
2023/09/03 10:30:13;;;;;;;2.58;2.00;;;21.10;99.90;;;;;;5043420;28;20041;-53
2023/09/03 10:32:41;;;;;;;3.83;1.95;;;21.30;99.90;;;;;;5047874;28;20036;-54
2023/09/03 10:35:11;;;;;;;2.60;1.70;;;21.30;99.90;;;;;;5042822;28;20470;-55
2023/09/03 10:37:38;;;;;;;3.95;2.67;;;21.40;99.90;;;;;;5065581;28;20036;-54
2023/09/03 10:40:36;;;;;;;4.03;2.50;;;21.60;99.90;;;;;;5048773;28;20372;-56
2023/09/03 10:43:23;;;;;;;3.30;2.08;;;21.60;99.90;;;;;;5017836;28;20150;-55
2023/09/03 10:46:05;;;;;;;3.30;2.33;;;21.50;99.90;;;;;;5032598;28;20052;-53
2023/09/03 10:48:31;;;;;;;2.20;1.20;;;21.80;99.90;;;;;;5066924;28;20146;-54
2023/09/03 10:50:57;;;;;;;3.90;1.63;;;21.80;99.90;;;;;;5058699;28;20135;-54
2023/09/03 10:53:42;;;;;;;3.85;2.10;;;21.90;99.90;;;;;;5046844;28;20040;-56
2023/09/03 10:56:18;;;;;;;4.35;2.25;;;21.80;99.90;;;;;;5044796;28;20098;-55
2023/09/03 10:58:58;;;;;;;3.90;2.22;;;21.80;99.90;;;;;;5023163;28;20040;-55
2023/09/03 11:01:33;;;;;;;3.97;2.00;;;22.00;99.90;;;;;;5045878;28;20047;-56
2023/09/03 11:04:01;;;;;;;2.97;1.67;;;22.10;99.90;;;;;;5044387;28;20127;-55
2023/09/03 11:06:32;;;;;;;4.32;2.00;;;22.40;99.90;;;;;;5056593;28;20040;-55
2023/09/03 11:09:01;;;;;;;3.28;2.15;;;22.40;99.90;;;;;;5043441;28;20094;-55
2023/09/03 11:11:33;;;;;;;3.40;2.05;;;22.60;99.90;;;;;;5026979;28;20070;-55
2023/09/03 11:14:00;;;;;;;6.13;1.95;;;22.50;99.90;;;;;;5032424;28;20131;-55
2023/09/03 11:16:42;;;;;;;4.30;2.20;;;22.60;99.90;;;;;;5040217;28;20535;-55
2023/09/03 11:19:08;;;;;;;5.15;2.00;;;22.80;99.90;;;;;;5044045;28;20082;-55
2023/09/03 11:21:35;;;;;;;5.63;2.22;;;23.10;99.90;;;;;;5049390;28;20040;-56
2023/09/03 11:24:02;;;;;;;2.70;1.60;;;23.40;99.90;;;;;;5058869;28;20045;-55
2023/09/03 11:26:32;;;;;;;5.78;2.33;;;23.40;99.90;;;;;;5049773;28;20033;-56
2023/09/03 11:28:59;;;;;;;2.70;1.70;;;23.30;99.90;;;;;;5050578;28;20037;-56
2023/09/03 11:31:25;;;;;;;2.15;1.50;;;22.90;99.90;;;;;;5068618;28;20041;-55
2023/09/03 11:33:51;;;;;;;3.63;1.70;;;22.70;99.90;;;;;;5060455;28;20406;-56
2023/09/03 11:36:26;;;;;;;3.38;1.50;;;22.50;99.90;;;;;;5065955;28;20130;-55
2023/09/03 11:38:55;;;;;;;3.30;1.45;;;22.70;99.90;;;;;;5043602;28;20119;-55
2023/09/03 11:41:21;;;;;;;4.38;2.08;;;22.80;99.90;;;;;;5059580;28;20056;-56
2023/09/03 11:43:47;;;;;;;4.45;1.73;;;22.90;99.90;;;;;;5046945;28;20171;-55
2023/09/03 11:46:17;;;;;;;4.03;1.95;;;23.10;99.90;;;;;;5066026;28;20455;-55
2023/09/03 11:48:54;;;;;;;3.95;1.40;;;23.30;99.90;;;;;;5048267;28;20514;-55
2023/09/03 11:51:25;;;;;;;5.93;1.40;;;23.50;99.90;;;;;;5060305;28;20399;-53
2023/09/03 11:53:51;;;;;;;3.67;1.48;;;23.70;99.90;;;;;;5065986;28;20078;-55
2023/09/03 11:56:19;;;;;;;4.95;1.50;;;23.70;99.90;;;;;;5032572;28;20048;-54
2023/09/03 11:58:48;;;;;;;2.88;1.25;;;23.60;99.90;;;;;;5051601;28;20044;-56
2023/09/03 12:01:15;;;;;;;2.65;1.30;;;23.60;99.90;;;;;;5067444;28;20153;-52
2023/09/03 12:03:41;;;;;;;2.40;1.15;;;23.40;99.90;;;;;;5032146;28;20135;-55
2023/09/03 12:06:07;;;;;;;4.47;1.83;;;23.30;99.90;;;;;;5061212;28;20041;-55
2023/09/03 12:08:33;;;;;;;4.00;1.80;;;23.40;99.90;;;;;;5029238;28;20051;-56
2023/09/03 12:10:59;;;;;;;1.83;1.20;;;23.60;99.90;;;;;;5054486;28;20049;-56
2023/09/03 12:13:34;;;;;;;3.10;1.27;;;23.50;99.90;;;;;;5051215;28;20101;-55
2023/09/03 12:16:15;;;;;;;3.58;1.13;;;23.70;99.90;;;;;;5045100;28;20446;-55
2023/09/03 12:18:58;;;;;;;3.10;1.48;;;23.70;99.90;;;;;;5062902;28;21444;-55
2023/09/03 12:21:34;;;;;;;4.30;1.50;;;23.60;99.30;;;;;;5042846;28;20040;-56
2023/09/03 12:24:07;;;;;;;2.38;1.23;;;23.40;99.70;;;;;;5029940;28;20051;-52
2023/09/03 12:26:37;;;;;;;2.28;1.35;;;23.60;99.90;;;;;;5046755;28;20072;-55
2023/09/03 12:29:03;;;;;;;2.92;1.33;;;24.00;99.90;;;;;;5062451;28;20039;-56
2023/09/03 12:31:44;;;;;;;2.90;1.52;;;24.40;99.50;;;;;;5047665;28;20059;-56
2023/09/03 12:34:11;;;;;;;2.70;1.30;;;24.50;98.30;;;;;;5049128;28;20466;-55
2023/09/03 12:36:59;;;;;;;4.15;1.38;;;24.50;98.80;;;;;;5060431;28;20037;-54
2023/09/03 12:39:32;;;;;;;1.95;1.30;;;24.70;98.70;;;;;;5063684;28;20469;-55
2023/09/03 12:41:59;;;;;;;3.20;1.50;;;24.80;98.20;;;;;;5043521;28;20060;-55
2023/09/03 12:44:29;;;;;;;2.55;1.10;;;24.70;98.70;;;;;;5023924;28;20417;-56
2023/09/03 12:46:59;;;;;;;3.83;1.60;;;24.70;98.80;;;;;;5032877;28;20531;-55
2023/09/03 12:49:28;;;;;;;4.72;1.38;;;24.60;98.80;;;;;;5066611;28;20131;-55